sensor_id;sensor_type;location;lat;lon;timestamp;P1;durP1;ratioP1;P2;durP2;ratioP2
59938;SDS011;45801;51.810;19.444;2022-08-03T00:02:24;13.40;;;9.30;;
59938;SDS011;45801;51.810;19.444;2022-08-03T00:04:50;14.30;;;9.10;;
59938;SDS011;45801;51.810;19.444;2022-08-03T00:07:16;15.30;;;9.30;;
59938;SDS011;45801;51.810;19.444;2022-08-03T00:09:42;14.90;;;9.00;;
59938;SDS011;45801;51.810;19.444;2022-08-03T00:12:08;16.50;;;9.70;;
59938;SDS011;45801;51.810;19.444;2022-08-03T00:14:34;14.20;;;9.80;;
59938;SDS011;45801;51.810;19.444;2022-08-03T00:17:00;12.90;;;8.90;;
59938;SDS011;45801;51.810;19.444;2022-08-03T00:19:25;15.60;;;9.70;;
59938;SDS011;45801;51.810;19.444;2022-08-03T00:21:52;14.60;;;8.90;;
59938;SDS011;45801;51.810;19.444;2022-08-03T00:24:18;14.20;;;9.20;;
59938;SDS011;45801;51.810;19.444;2022-08-03T00:26:44;16.10;;;9.40;;
59938;SDS011;45801;51.810;19.444;2022-08-03T00:29:10;14.80;;;8.80;;
59938;SDS011;45801;51.810;19.444;2022-08-03T00:31:35;14.50;;;9.70;;
59938;SDS011;45801;51.810;19.444;2022-08-03T00:34:01;16.10;;;9.90;;
59938;SDS011;45801;51.810;19.444;2022-08-03T00:36:27;14.10;;;8.80;;
59938;SDS011;45801;51.810;19.444;2022-08-03T00:38:54;15.60;;;8.40;;
59938;SDS011;45801;51.810;19.444;2022-08-03T00:41:20;15.40;;;9.00;;
59938;SDS011;45801;51.810;19.444;2022-08-03T00:43:46;15.10;;;9.30;;
59938;SDS011;45801;51.810;19.444;2022-08-03T00:46:12;13.50;;;8.60;;
59938;SDS011;45801;51.810;19.444;2022-08-03T00:48:38;14.80;;;9.00;;
59938;SDS011;45801;51.810;19.444;2022-08-03T00:51:04;15.40;;;8.60;;
59938;SDS011;45801;51.810;19.444;2022-08-03T00:53:31;14.90;;;9.00;;
59938;SDS011;45801;51.810;19.444;2022-08-03T00:55:58;14.70;;;9.10;;
59938;SDS011;45801;51.810;19.444;2022-08-03T00:58:24;12.20;;;8.90;;
59938;SDS011;45801;51.810;19.444;2022-08-03T01:00:50;14.80;;;8.70;;
59938;SDS011;45801;51.810;19.444;2022-08-03T01:03:16;14.90;;;9.40;;
59938;SDS011;45801;51.810;19.444;2022-08-03T01:05:48;16.00;;;8.90;;
59938;SDS011;45801;51.810;19.444;2022-08-03T01:08:51;13.00;;;8.60;;
59938;SDS011;45801;51.810;19.444;2022-08-03T01:14:17;12.40;;;8.10;;
59938;SDS011;45801;51.810;19.444;2022-08-03T01:16:56;14.70;;;8.00;;
59938;SDS011;45801;51.810;19.444;2022-08-03T01:22:17;12.60;;;8.30;;
59938;SDS011;45801;51.810;19.444;2022-08-03T01:30:17;12.80;;;8.00;;
59938;SDS011;45801;51.810;19.444;2022-08-03T01:32:45;13.60;;;8.20;;
59938;SDS011;45801;51.810;19.444;2022-08-03T01:35:24;13.60;;;8.40;;
59938;SDS011;45801;51.810;19.444;2022-08-03T01:37:56;11.80;;;8.00;;
59938;SDS011;45801;51.810;19.444;2022-08-03T01:40:25;13.40;;;8.20;;
59938;SDS011;45801;51.810;19.444;2022-08-03T01:42:53;14.70;;;8.60;;
59938;SDS011;45801;51.810;19.444;2022-08-03T01:45:22;13.00;;;8.30;;
59938;SDS011;45801;51.810;19.444;2022-08-03T01:47:49;15.00;;;8.40;;
59938;SDS011;45801;51.810;19.444;2022-08-03T01:50:21;11.40;;;7.80;;
59938;SDS011;45801;51.810;19.444;2022-08-03T01:52:51;11.00;;;7.10;;
59938;SDS011;45801;51.810;19.444;2022-08-03T01:55:21;11.90;;;7.70;;
59938;SDS011;45801;51.810;19.444;2022-08-03T01:57:48;11.50;;;7.10;;
59938;SDS011;45801;51.810;19.444;2022-08-03T02:00:15;11.90;;;7.50;;
59938;SDS011;45801;51.810;19.444;2022-08-03T02:02:43;12.30;;;6.70;;
59938;SDS011;45801;51.810;19.444;2022-08-03T02:05:13;10.60;;;7.00;;
59938;SDS011;45801;51.810;19.444;2022-08-03T02:07:41;9.80;;;6.60;;
59938;SDS011;45801;51.810;19.444;2022-08-03T02:10:10;9.70;;;6.60;;
59938;SDS011;45801;51.810;19.444;2022-08-03T02:12:38;11.30;;;7.30;;
59938;SDS011;45801;51.810;19.444;2022-08-03T02:15:04;11.60;;;6.90;;
59938;SDS011;45801;51.810;19.444;2022-08-03T02:17:31;10.70;;;7.30;;
59938;SDS011;45801;51.810;19.444;2022-08-03T02:19:59;10.00;;;6.70;;
59938;SDS011;45801;51.810;19.444;2022-08-03T02:22:27;12.00;;;7.60;;
59938;SDS011;45801;51.810;19.444;2022-08-03T02:24:54;10.00;;;6.20;;
59938;SDS011;45801;51.810;19.444;2022-08-03T02:27:21;9.70;;;6.70;;
59938;SDS011;45801;51.810;19.444;2022-08-03T02:29:54;11.70;;;6.70;;
59938;SDS011;45801;51.810;19.444;2022-08-03T02:32:31;9.70;;;5.80;;
59938;SDS011;45801;51.810;19.444;2022-08-03T02:35:01;12.60;;;6.70;;
59938;SDS011;45801;51.810;19.444;2022-08-03T02:37:30;9.70;;;6.10;;
59938;SDS011;45801;51.810;19.444;2022-08-03T02:40:02;9.70;;;5.90;;
59938;SDS011;45801;51.810;19.444;2022-08-03T02:42:31;10.80;;;6.10;;
59938;SDS011;45801;51.810;19.444;2022-08-03T02:44:59;9.30;;;5.90;;
59938;SDS011;45801;51.810;19.444;2022-08-03T02:47:28;9.50;;;6.00;;
59938;SDS011;45801;51.810;19.444;2022-08-03T02:49:57;9.50;;;6.10;;
59938;SDS011;45801;51.810;19.444;2022-08-03T02:52:27;9.20;;;6.00;;
59938;SDS011;45801;51.810;19.444;2022-08-03T02:54:55;10.40;;;7.00;;
59938;SDS011;45801;51.810;19.444;2022-08-03T02:57:24;9.90;;;6.10;;
59938;SDS011;45801;51.810;19.444;2022-08-03T02:59:55;10.40;;;6.90;;
59938;SDS011;45801;51.810;19.444;2022-08-03T03:02:23;9.40;;;6.00;;
59938;SDS011;45801;51.810;19.444;2022-08-03T03:04:50;8.40;;;6.00;;
59938;SDS011;45801;51.810;19.444;2022-08-03T03:07:17;12.40;;;6.00;;
59938;SDS011;45801;51.810;19.444;2022-08-03T03:09:45;12.70;;;6.40;;
59938;SDS011;45801;51.810;19.444;2022-08-03T03:12:12;9.50;;;6.00;;
59938;SDS011;45801;51.810;19.444;2022-08-03T03:14:38;9.70;;;6.40;;
59938;SDS011;45801;51.810;19.444;2022-08-03T03:17:08;9.50;;;5.30;;
59938;SDS011;45801;51.810;19.444;2022-08-03T03:19:35;9.30;;;6.60;;
59938;SDS011;45801;51.810;19.444;2022-08-03T03:22:04;8.60;;;5.60;;
59938;SDS011;45801;51.810;19.444;2022-08-03T03:24:32;10.00;;;6.40;;
59938;SDS011;45801;51.810;19.444;2022-08-03T03:27:00;11.00;;;6.20;;
59938;SDS011;45801;51.810;19.444;2022-08-03T03:29:27;8.90;;;6.00;;
59938;SDS011;45801;51.810;19.444;2022-08-03T03:31:53;10.00;;;6.00;;
59938;SDS011;45801;51.810;19.444;2022-08-03T03:34:19;11.20;;;6.30;;
59938;SDS011;45801;51.810;19.444;2022-08-03T03:36:45;10.90;;;6.00;;
59938;SDS011;45801;51.810;19.444;2022-08-03T03:39:11;9.40;;;6.30;;
59938;SDS011;45801;51.810;19.444;2022-08-03T03:41:38;9.90;;;5.50;;
59938;SDS011;45801;51.810;19.444;2022-08-03T03:44:04;11.70;;;6.00;;
59938;SDS011;45801;51.810;19.444;2022-08-03T03:46:30;10.70;;;6.50;;
59938;SDS011;45801;51.810;19.444;2022-08-03T03:48:56;9.90;;;6.20;;
59938;SDS011;45801;51.810;19.444;2022-08-03T03:51:22;11.60;;;6.70;;
59938;SDS011;45801;51.810;19.444;2022-08-03T03:53:57;12.40;;;6.60;;
59938;SDS011;45801;51.810;19.444;2022-08-03T03:56:24;12.40;;;7.10;;
59938;SDS011;45801;51.810;19.444;2022-08-03T03:58:51;10.70;;;6.40;;
59938;SDS011;45801;51.810;19.444;2022-08-03T04:01:17;11.40;;;6.70;;
59938;SDS011;45801;51.810;19.444;2022-08-03T04:03:43;11.90;;;7.30;;
59938;SDS011;45801;51.810;19.444;2022-08-03T04:06:10;10.10;;;6.30;;
59938;SDS011;45801;51.810;19.444;2022-08-03T04:08:55;10.80;;;6.20;;
59938;SDS011;45801;51.810;19.444;2022-08-03T04:11:47;9.60;;;6.40;;
59938;SDS011;45801;51.810;19.444;2022-08-03T04:14:23;10.50;;;6.10;;
59938;SDS011;45801;51.810;19.444;2022-08-03T04:16:58;10.00;;;6.50;;
59938;SDS011;45801;51.810;19.444;2022-08-03T04:19:31;11.00;;;6.50;;
59938;SDS011;45801;51.810;19.444;2022-08-03T04:22:05;10.70;;;6.20;;
59938;SDS011;45801;51.810;19.444;2022-08-03T04:24:37;11.10;;;6.30;;
59938;SDS011;45801;51.810;19.444;2022-08-03T04:27:06;12.70;;;6.30;;
59938;SDS011;45801;51.810;19.444;2022-08-03T04:29:34;10.80;;;5.80;;
59938;SDS011;45801;51.810;19.444;2022-08-03T04:32:04;11.10;;;6.60;;
59938;SDS011;45801;51.810;19.444;2022-08-03T04:34:32;12.30;;;6.50;;
59938;SDS011;45801;51.810;19.444;2022-08-03T04:36:58;12.40;;;6.40;;
59938;SDS011;45801;51.810;19.444;2022-08-03T04:39:29;10.80;;;6.30;;
59938;SDS011;45801;51.810;19.444;2022-08-03T04:41:57;13.50;;;6.60;;
59938;SDS011;45801;51.810;19.444;2022-08-03T04:44:28;12.00;;;6.30;;
59938;SDS011;45801;51.810;19.444;2022-08-03T04:46:56;11.30;;;6.40;;
59938;SDS011;45801;51.810;19.444;2022-08-03T04:49:23;10.60;;;6.20;;
59938;SDS011;45801;51.810;19.444;2022-08-03T04:51:49;10.30;;;6.10;;
59938;SDS011;45801;51.810;19.444;2022-08-03T04:54:15;13.70;;;6.50;;
59938;SDS011;45801;51.810;19.444;2022-08-03T04:56:42;10.80;;;6.30;;
59938;SDS011;45801;51.810;19.444;2022-08-03T04:59:08;9.80;;;6.40;;
59938;SDS011;45801;51.810;19.444;2022-08-03T05:01:35;12.70;;;6.30;;
59938;SDS011;45801;51.810;19.444;2022-08-03T05:04:01;11.90;;;6.70;;
59938;SDS011;45801;51.810;19.444;2022-08-03T05:06:27;12.00;;;6.50;;
59938;SDS011;45801;51.810;19.444;2022-08-03T05:08:52;11.50;;;6.70;;
59938;SDS011;45801;51.810;19.444;2022-08-03T05:11:19;12.00;;;6.60;;
59938;SDS011;45801;51.810;19.444;2022-08-03T05:13:45;11.40;;;7.10;;
59938;SDS011;45801;51.810;19.444;2022-08-03T05:16:12;12.30;;;8.30;;
59938;SDS011;45801;51.810;19.444;2022-08-03T05:18:39;11.50;;;8.20;;
59938;SDS011;45801;51.810;19.444;2022-08-03T05:21:06;14.20;;;8.60;;
59938;SDS011;45801;51.810;19.444;2022-08-03T05:23:33;17.30;;;9.00;;
59938;SDS011;45801;51.810;19.444;2022-08-03T05:25:59;13.70;;;8.60;;
59938;SDS011;45801;51.810;19.444;2022-08-03T05:28:25;11.40;;;8.10;;
59938;SDS011;45801;51.810;19.444;2022-08-03T05:30:50;12.20;;;8.30;;
59938;SDS011;45801;51.810;19.444;2022-08-03T05:33:16;11.90;;;8.40;;
59938;SDS011;45801;51.810;19.444;2022-08-03T05:35:42;13.00;;;8.80;;
59938;SDS011;45801;51.810;19.444;2022-08-03T05:38:08;12.20;;;8.50;;
59938;SDS011;45801;51.810;19.444;2022-08-03T05:40:34;13.40;;;8.80;;
59938;SDS011;45801;51.810;19.444;2022-08-03T05:43:00;11.50;;;8.30;;
59938;SDS011;45801;51.810;19.444;2022-08-03T05:45:26;12.20;;;9.00;;
59938;SDS011;45801;51.810;19.444;2022-08-03T05:47:52;12.30;;;8.80;;
59938;SDS011;45801;51.810;19.444;2022-08-03T05:50:18;13.00;;;8.80;;
59938;SDS011;45801;51.810;19.444;2022-08-03T05:52:45;12.40;;;8.70;;
59938;SDS011;45801;51.810;19.444;2022-08-03T05:55:11;11.90;;;8.70;;
59938;SDS011;45801;51.810;19.444;2022-08-03T05:57:38;16.70;;;9.40;;
59938;SDS011;45801;51.810;19.444;2022-08-03T06:00:05;14.00;;;8.70;;
59938;SDS011;45801;51.810;19.444;2022-08-03T06:02:33;13.30;;;8.90;;
59938;SDS011;45801;51.810;19.444;2022-08-03T06:04:58;12.10;;;8.50;;
59938;SDS011;45801;51.810;19.444;2022-08-03T06:07:24;12.70;;;8.80;;
59938;SDS011;45801;51.810;19.444;2022-08-03T06:09:50;12.10;;;8.60;;
59938;SDS011;45801;51.810;19.444;2022-08-03T06:12:16;12.30;;;8.60;;
59938;SDS011;45801;51.810;19.444;2022-08-03T06:14:42;12.80;;;8.30;;
59938;SDS011;45801;51.810;19.444;2022-08-03T06:17:07;11.20;;;7.60;;
59938;SDS011;45801;51.810;19.444;2022-08-03T06:19:33;13.90;;;8.70;;
59938;SDS011;45801;51.810;19.444;2022-08-03T06:21:59;11.60;;;8.80;;
59938;SDS011;45801;51.810;19.444;2022-08-03T06:24:24;15.10;;;9.70;;
59938;SDS011;45801;51.810;19.444;2022-08-03T06:26:50;11.00;;;8.80;;
59938;SDS011;45801;51.810;19.444;2022-08-03T06:29:16;12.10;;;8.90;;
59938;SDS011;45801;51.810;19.444;2022-08-03T06:31:42;13.30;;;9.60;;
59938;SDS011;45801;51.810;19.444;2022-08-03T06:34:07;11.60;;;8.00;;
59938;SDS011;45801;51.810;19.444;2022-08-03T06:36:33;15.20;;;9.30;;
59938;SDS011;45801;51.810;19.444;2022-08-03T06:38:59;13.20;;;8.40;;
59938;SDS011;45801;51.810;19.444;2022-08-03T06:41:25;14.40;;;9.00;;
59938;SDS011;45801;51.810;19.444;2022-08-03T06:43:52;14.80;;;9.20;;
59938;SDS011;45801;51.810;19.444;2022-08-03T06:46:19;13.70;;;7.80;;
59938;SDS011;45801;51.810;19.444;2022-08-03T06:48:45;11.50;;;7.70;;
59938;SDS011;45801;51.810;19.444;2022-08-03T06:51:11;12.80;;;7.40;;
59938;SDS011;45801;51.810;19.444;2022-08-03T06:53:37;11.00;;;7.20;;
59938;SDS011;45801;51.810;19.444;2022-08-03T06:56:06;11.40;;;7.40;;
59938;SDS011;45801;51.810;19.444;2022-08-03T06:58:32;12.00;;;7.00;;
59938;SDS011;45801;51.810;19.444;2022-08-03T07:00:58;12.40;;;6.40;;
59938;SDS011;45801;51.810;19.444;2022-08-03T07:03:24;10.70;;;6.50;;
59938;SDS011;45801;51.810;19.444;2022-08-03T07:05:50;11.50;;;6.50;;
59938;SDS011;45801;51.810;19.444;2022-08-03T07:08:16;10.40;;;6.40;;
59938;SDS011;45801;51.810;19.444;2022-08-03T07:10:43;9.90;;;6.60;;
59938;SDS011;45801;51.810;19.444;2022-08-03T07:13:09;9.00;;;5.10;;
59938;SDS011;45801;51.810;19.444;2022-08-03T07:15:36;10.60;;;5.60;;
59938;SDS011;45801;51.810;19.444;2022-08-03T07:18:02;11.30;;;5.60;;
59938;SDS011;45801;51.810;19.444;2022-08-03T07:20:28;11.00;;;5.20;;
59938;SDS011;45801;51.810;19.444;2022-08-03T07:22:54;10.90;;;5.60;;
59938;SDS011;45801;51.810;19.444;2022-08-03T07:25:20;8.60;;;4.70;;
59938;SDS011;45801;51.810;19.444;2022-08-03T07:27:46;8.00;;;5.10;;
59938;SDS011;45801;51.810;19.444;2022-08-03T07:30:13;10.20;;;5.00;;
59938;SDS011;45801;51.810;19.444;2022-08-03T07:32:40;9.90;;;4.80;;
59938;SDS011;45801;51.810;19.444;2022-08-03T07:35:07;7.70;;;4.20;;
59938;SDS011;45801;51.810;19.444;2022-08-03T07:37:33;10.30;;;4.70;;
59938;SDS011;45801;51.810;19.444;2022-08-03T07:40:00;8.00;;;4.90;;
59938;SDS011;45801;51.810;19.444;2022-08-03T07:42:27;8.00;;;4.50;;
59938;SDS011;45801;51.810;19.444;2022-08-03T07:44:54;10.10;;;4.60;;
59938;SDS011;45801;51.810;19.444;2022-08-03T07:47:20;12.20;;;5.10;;
59938;SDS011;45801;51.810;19.444;2022-08-03T07:49:48;12.70;;;5.30;;
59938;SDS011;45801;51.810;19.444;2022-08-03T07:52:14;10.20;;;4.90;;
59938;SDS011;45801;51.810;19.444;2022-08-03T07:54:59;9.80;;;4.90;;
59938;SDS011;45801;51.810;19.444;2022-08-03T07:57:25;8.50;;;4.70;;
59938;SDS011;45801;51.810;19.444;2022-08-03T07:59:51;8.10;;;4.70;;
59938;SDS011;45801;51.810;19.444;2022-08-03T08:02:16;9.80;;;4.40;;
59938;SDS011;45801;51.810;19.444;2022-08-03T08:04:42;8.10;;;3.80;;
59938;SDS011;45801;51.810;19.444;2022-08-03T08:07:08;6.90;;;3.60;;
59938;SDS011;45801;51.810;19.444;2022-08-03T08:09:34;7.00;;;3.70;;
59938;SDS011;45801;51.810;19.444;2022-08-03T08:12:00;7.40;;;3.90;;
59938;SDS011;45801;51.810;19.444;2022-08-03T08:14:26;8.30;;;4.10;;
59938;SDS011;45801;51.810;19.444;2022-08-03T08:16:51;9.00;;;4.70;;
59938;SDS011;45801;51.810;19.444;2022-08-03T08:19:17;6.90;;;3.80;;
59938;SDS011;45801;51.810;19.444;2022-08-03T08:21:43;7.50;;;4.40;;
59938;SDS011;45801;51.810;19.444;2022-08-03T08:24:09;9.50;;;4.70;;
59938;SDS011;45801;51.810;19.444;2022-08-03T08:26:35;8.00;;;4.60;;
59938;SDS011;45801;51.810;19.444;2022-08-03T08:29:02;9.10;;;4.40;;
59938;SDS011;45801;51.810;19.444;2022-08-03T08:31:29;7.20;;;4.10;;
59938;SDS011;45801;51.810;19.444;2022-08-03T08:33:55;8.00;;;4.30;;
59938;SDS011;45801;51.810;19.444;2022-08-03T08:36:20;6.70;;;4.40;;
59938;SDS011;45801;51.810;19.444;2022-08-03T08:38:46;8.60;;;5.40;;
59938;SDS011;45801;51.810;19.444;2022-08-03T08:41:12;7.60;;;4.70;;
59938;SDS011;45801;51.810;19.444;2022-08-03T08:43:39;8.20;;;4.90;;
59938;SDS011;45801;51.810;19.444;2022-08-03T08:46:06;9.10;;;5.40;;
59938;SDS011;45801;51.810;19.444;2022-08-03T08:48:37;7.90;;;4.80;;
59938;SDS011;45801;51.810;19.444;2022-08-03T08:51:06;9.30;;;5.30;;
59938;SDS011;45801;51.810;19.444;2022-08-03T08:53:35;9.70;;;5.20;;
59938;SDS011;45801;51.810;19.444;2022-08-03T08:56:02;7.50;;;4.50;;
59938;SDS011;45801;51.810;19.444;2022-08-03T08:58:29;9.80;;;5.20;;
59938;SDS011;45801;51.810;19.444;2022-08-03T09:01:01;8.40;;;5.20;;
59938;SDS011;45801;51.810;19.444;2022-08-03T09:03:27;9.90;;;4.70;;
59938;SDS011;45801;51.810;19.444;2022-08-03T09:05:52;9.30;;;5.50;;
59938;SDS011;45801;51.810;19.444;2022-08-03T09:08:20;8.00;;;5.00;;
59938;SDS011;45801;51.810;19.444;2022-08-03T09:10:47;9.60;;;4.80;;
59938;SDS011;45801;51.810;19.444;2022-08-03T09:13:13;7.80;;;4.80;;
59938;SDS011;45801;51.810;19.444;2022-08-03T09:15:39;9.40;;;5.50;;
59938;SDS011;45801;51.810;19.444;2022-08-03T09:18:06;9.80;;;5.50;;
59938;SDS011;45801;51.810;19.444;2022-08-03T09:20:34;9.00;;;5.20;;
59938;SDS011;45801;51.810;19.444;2022-08-03T09:23:02;7.80;;;5.10;;
59938;SDS011;45801;51.810;19.444;2022-08-03T09:25:40;9.60;;;5.40;;
59938;SDS011;45801;51.810;19.444;2022-08-03T09:28:08;8.00;;;5.00;;
59938;SDS011;45801;51.810;19.444;2022-08-03T09:30:39;9.30;;;6.10;;
59938;SDS011;45801;51.810;19.444;2022-08-03T09:33:10;9.40;;;5.90;;
59938;SDS011;45801;51.810;19.444;2022-08-03T09:35:41;8.90;;;4.80;;
59938;SDS011;45801;51.810;19.444;2022-08-03T09:38:14;8.80;;;5.30;;
59938;SDS011;45801;51.810;19.444;2022-08-03T09:40:51;9.40;;;5.60;;
59938;SDS011;45801;51.810;19.444;2022-08-03T09:43:17;8.90;;;6.40;;
59938;SDS011;45801;51.810;19.444;2022-08-03T09:45:43;9.40;;;6.00;;
59938;SDS011;45801;51.810;19.444;2022-08-03T09:50:59;9.60;;;6.10;;
59938;SDS011;45801;51.810;19.444;2022-08-03T09:53:27;8.20;;;5.30;;
59938;SDS011;45801;51.810;19.444;2022-08-03T09:55:54;8.90;;;5.90;;
59938;SDS011;45801;51.810;19.444;2022-08-03T09:58:26;8.30;;;5.70;;
59938;SDS011;45801;51.810;19.444;2022-08-03T10:01:00;9.00;;;6.40;;
59938;SDS011;45801;51.810;19.444;2022-08-03T10:03:31;7.90;;;5.40;;
59938;SDS011;45801;51.810;19.444;2022-08-03T10:05:59;8.30;;;6.00;;
59938;SDS011;45801;51.810;19.444;2022-08-03T10:08:46;8.40;;;5.70;;
59938;SDS011;45801;51.810;19.444;2022-08-03T10:11:31;8.90;;;5.80;;
59938;SDS011;45801;51.810;19.444;2022-08-03T10:14:01;8.50;;;6.30;;
59938;SDS011;45801;51.810;19.444;2022-08-03T10:16:35;10.00;;;5.90;;
59938;SDS011;45801;51.810;19.444;2022-08-03T10:19:05;10.40;;;5.80;;
59938;SDS011;45801;51.810;19.444;2022-08-03T10:21:33;8.00;;;5.80;;
59938;SDS011;45801;51.810;19.444;2022-08-03T10:24:01;9.10;;;6.10;;
59938;SDS011;45801;51.810;19.444;2022-08-03T10:26:29;9.50;;;5.40;;
59938;SDS011;45801;51.810;19.444;2022-08-03T10:28:57;8.90;;;5.20;;
59938;SDS011;45801;51.810;19.444;2022-08-03T10:31:25;8.60;;;5.20;;
59938;SDS011;45801;51.810;19.444;2022-08-03T10:33:59;9.80;;;5.40;;
59938;SDS011;45801;51.810;19.444;2022-08-03T10:36:29;8.10;;;5.60;;
59938;SDS011;45801;51.810;19.444;2022-08-03T10:38:57;9.50;;;5.80;;
59938;SDS011;45801;51.810;19.444;2022-08-03T10:41:25;9.60;;;6.10;;
59938;SDS011;45801;51.810;19.444;2022-08-03T10:44:03;7.70;;;5.40;;
59938;SDS011;45801;51.810;19.444;2022-08-03T10:46:32;8.90;;;5.80;;
59938;SDS011;45801;51.810;19.444;2022-08-03T10:49:00;8.30;;;5.50;;
59938;SDS011;45801;51.810;19.444;2022-08-03T10:51:27;7.90;;;5.20;;
59938;SDS011;45801;51.810;19.444;2022-08-03T10:53:56;8.60;;;5.50;;
59938;SDS011;45801;51.810;19.444;2022-08-03T10:56:36;9.40;;;5.50;;
59938;SDS011;45801;51.810;19.444;2022-08-03T11:02:09;7.80;;;5.10;;
59938;SDS011;45801;51.810;19.444;2022-08-03T11:04:36;9.50;;;5.30;;
59938;SDS011;45801;51.810;19.444;2022-08-03T11:07:21;9.20;;;5.10;;
59938;SDS011;45801;51.810;19.444;2022-08-03T11:09:49;8.90;;;6.00;;
59938;SDS011;45801;51.810;19.444;2022-08-03T11:12:32;8.10;;;5.70;;
59938;SDS011;45801;51.810;19.444;2022-08-03T11:14:59;8.20;;;5.50;;
59938;SDS011;45801;51.810;19.444;2022-08-03T11:17:30;11.80;;;6.20;;
59938;SDS011;45801;51.810;19.444;2022-08-03T11:19:58;9.20;;;5.30;;
59938;SDS011;45801;51.810;19.444;2022-08-03T11:22:24;7.70;;;5.50;;
59938;SDS011;45801;51.810;19.444;2022-08-03T11:27:19;8.30;;;5.80;;
59938;SDS011;45801;51.810;19.444;2022-08-03T11:35:13;8.30;;;5.30;;
59938;SDS011;45801;51.810;19.444;2022-08-03T11:43:08;8.20;;;5.40;;
59938;SDS011;45801;51.810;19.444;2022-08-03T11:45:58;11.70;;;5.50;;
59938;SDS011;45801;51.810;19.444;2022-08-03T11:48:26;8.00;;;4.90;;
59938;SDS011;45801;51.810;19.444;2022-08-03T11:51:01;8.30;;;5.80;;
59938;SDS011;45801;51.810;19.444;2022-08-03T11:53:28;7.70;;;5.60;;
59938;SDS011;45801;51.810;19.444;2022-08-03T11:55:57;8.50;;;5.50;;
59938;SDS011;45801;51.810;19.444;2022-08-03T11:58:24;8.20;;;5.50;;
59938;SDS011;45801;51.810;19.444;2022-08-03T12:00:50;7.90;;;6.00;;
59938;SDS011;45801;51.810;19.444;2022-08-03T12:03:17;8.40;;;5.80;;
59938;SDS011;45801;51.810;19.444;2022-08-03T12:05:48;9.20;;;5.80;;
59938;SDS011;45801;51.810;19.444;2022-08-03T12:08:16;8.00;;;5.80;;
59938;SDS011;45801;51.810;19.444;2022-08-03T12:10:54;7.70;;;5.70;;
59938;SDS011;45801;51.810;19.444;2022-08-03T12:13:21;7.90;;;5.80;;
59938;SDS011;45801;51.810;19.444;2022-08-03T12:15:51;8.80;;;6.60;;
59938;SDS011;45801;51.810;19.444;2022-08-03T12:18:20;10.50;;;6.80;;
59938;SDS011;45801;51.810;19.444;2022-08-03T12:20:47;8.40;;;6.30;;
59938;SDS011;45801;51.810;19.444;2022-08-03T12:23:14;8.50;;;6.50;;
59938;SDS011;45801;51.810;19.444;2022-08-03T12:25:42;10.60;;;6.40;;
59938;SDS011;45801;51.810;19.444;2022-08-03T12:28:19;8.30;;;6.40;;
59938;SDS011;45801;51.810;19.444;2022-08-03T12:30:48;8.80;;;6.00;;
59938;SDS011;45801;51.810;19.444;2022-08-03T12:33:22;9.10;;;6.30;;
59938;SDS011;45801;51.810;19.444;2022-08-03T12:36:00;11.80;;;6.40;;
59938;SDS011;45801;51.810;19.444;2022-08-03T12:38:28;8.30;;;6.00;;
59938;SDS011;45801;51.810;19.444;2022-08-03T12:40:54;8.30;;;6.40;;
59938;SDS011;45801;51.810;19.444;2022-08-03T12:43:21;10.50;;;7.10;;
59938;SDS011;45801;51.810;19.444;2022-08-03T12:45:47;8.00;;;6.50;;
59938;SDS011;45801;51.810;19.444;2022-08-03T12:48:13;8.50;;;6.60;;
59938;SDS011;45801;51.810;19.444;2022-08-03T12:50:39;8.70;;;6.20;;
59938;SDS011;45801;51.810;19.444;2022-08-03T12:53:06;7.90;;;5.60;;
59938;SDS011;45801;51.810;19.444;2022-08-03T12:55:33;8.60;;;6.40;;
59938;SDS011;45801;51.810;19.444;2022-08-03T12:58:01;8.20;;;5.80;;
59938;SDS011;45801;51.810;19.444;2022-08-03T13:00:28;8.30;;;6.20;;
59938;SDS011;45801;51.810;19.444;2022-08-03T13:03:13;10.10;;;6.10;;
59938;SDS011;45801;51.810;19.444;2022-08-03T13:05:42;9.60;;;6.40;;
59938;SDS011;45801;51.810;19.444;2022-08-03T13:08:18;8.50;;;6.70;;
59938;SDS011;45801;51.810;19.444;2022-08-03T13:10:45;8.10;;;6.20;;
59938;SDS011;45801;51.810;19.444;2022-08-03T13:13:12;10.40;;;6.40;;
59938;SDS011;45801;51.810;19.444;2022-08-03T13:15:39;10.50;;;6.50;;
59938;SDS011;45801;51.810;19.444;2022-08-03T13:18:05;7.70;;;5.60;;
59938;SDS011;45801;51.810;19.444;2022-08-03T13:20:32;8.60;;;6.20;;
59938;SDS011;45801;51.810;19.444;2022-08-03T13:22:58;9.30;;;6.40;;
59938;SDS011;45801;51.810;19.444;2022-08-03T13:25:24;8.80;;;6.10;;
59938;SDS011;45801;51.810;19.444;2022-08-03T13:27:50;9.10;;;6.20;;
59938;SDS011;45801;51.810;19.444;2022-08-03T13:30:17;8.40;;;6.10;;
59938;SDS011;45801;51.810;19.444;2022-08-03T13:32:43;9.40;;;6.20;;
59938;SDS011;45801;51.810;19.444;2022-08-03T13:35:09;7.70;;;6.00;;
59938;SDS011;45801;51.810;19.444;2022-08-03T13:37:36;8.10;;;6.30;;
59938;SDS011;45801;51.810;19.444;2022-08-03T13:40:04;7.70;;;6.20;;
59938;SDS011;45801;51.810;19.444;2022-08-03T13:42:31;8.00;;;6.60;;
59938;SDS011;45801;51.810;19.444;2022-08-03T13:44:59;8.00;;;6.00;;
59938;SDS011;45801;51.810;19.444;2022-08-03T13:47:26;9.00;;;6.20;;
59938;SDS011;45801;51.810;19.444;2022-08-03T13:49:52;7.80;;;6.30;;
59938;SDS011;45801;51.810;19.444;2022-08-03T13:52:18;9.60;;;7.20;;
59938;SDS011;45801;51.810;19.444;2022-08-03T13:54:44;9.80;;;6.70;;
59938;SDS011;45801;51.810;19.444;2022-08-03T13:57:10;10.20;;;6.70;;
59938;SDS011;45801;51.810;19.444;2022-08-03T13:59:36;8.70;;;6.40;;
59938;SDS011;45801;51.810;19.444;2022-08-03T14:02:02;9.30;;;6.70;;
59938;SDS011;45801;51.810;19.444;2022-08-03T14:04:29;9.00;;;6.60;;
59938;SDS011;45801;51.810;19.444;2022-08-03T14:06:55;10.00;;;6.60;;
59938;SDS011;45801;51.810;19.444;2022-08-03T14:09:21;11.40;;;6.70;;
59938;SDS011;45801;51.810;19.444;2022-08-03T14:11:47;10.30;;;7.10;;
59938;SDS011;45801;51.810;19.444;2022-08-03T14:14:12;8.80;;;6.80;;
59938;SDS011;45801;51.810;19.444;2022-08-03T14:16:38;8.10;;;6.50;;
59938;SDS011;45801;51.810;19.444;2022-08-03T14:19:04;10.60;;;6.60;;
59938;SDS011;45801;51.810;19.444;2022-08-03T14:21:34;8.60;;;6.50;;
59938;SDS011;45801;51.810;19.444;2022-08-03T14:24:00;8.80;;;6.40;;
59938;SDS011;45801;51.810;19.444;2022-08-03T14:26:26;9.30;;;7.30;;
59938;SDS011;45801;51.810;19.444;2022-08-03T14:28:52;8.30;;;6.60;;
59938;SDS011;45801;51.810;19.444;2022-08-03T14:31:18;8.30;;;6.70;;
59938;SDS011;45801;51.810;19.444;2022-08-03T14:33:44;8.40;;;6.90;;
59938;SDS011;45801;51.810;19.444;2022-08-03T14:36:09;9.20;;;7.20;;
59938;SDS011;45801;51.810;19.444;2022-08-03T14:38:35;10.80;;;7.30;;
59938;SDS011;45801;51.810;19.444;2022-08-03T14:41:01;9.30;;;8.00;;
59938;SDS011;45801;51.810;19.444;2022-08-03T14:43:27;10.40;;;7.90;;
59938;SDS011;45801;51.810;19.444;2022-08-03T14:45:52;8.80;;;7.80;;
59938;SDS011;45801;51.810;19.444;2022-08-03T14:48:18;9.20;;;7.20;;
59938;SDS011;45801;51.810;19.444;2022-08-03T14:50:45;9.80;;;7.00;;
59938;SDS011;45801;51.810;19.444;2022-08-03T14:53:11;8.80;;;7.60;;
59938;SDS011;45801;51.810;19.444;2022-08-03T14:55:38;10.20;;;7.70;;
59938;SDS011;45801;51.810;19.444;2022-08-03T14:58:03;9.40;;;6.90;;
59938;SDS011;45801;51.810;19.444;2022-08-03T15:00:33;9.30;;;7.60;;
59938;SDS011;45801;51.810;19.444;2022-08-03T15:03:00;8.70;;;7.10;;
59938;SDS011;45801;51.810;19.444;2022-08-03T15:05:26;9.20;;;7.50;;